Time;durP1;ratioP1;P1;durP2;ratioP2;P2;SDS_P1;SDS_P2;PMS_P1;PMS_P2;Temp;Humidity;BMP_temperature;BMP_pressure;BME280_temperature;BME280_humidity;BME280_pressure;Samples;Min_cycle;Max_cycle;Signal;HPM_P1;HPM_P2
2022/09/12 00:01:30;;;;;;;;;7.00;7.00;;;;;21.76;65.81;156553.72;4991763;28;45361;-73
2022/09/12 00:03:58;;;;;;;;;7.33;7.33;;;;;21.75;65.99;156552.41;4973188;28;45551;-73
2022/09/12 00:06:33;;;;;;;;;7.67;7.67;;;;;21.68;65.90;156535.16;4970953;28;45573;-73
2022/09/12 00:09:01;;;;;;;;;12.00;10.00;;;;;21.65;65.67;156527.16;4988488;28;46291;-73
2022/09/12 00:11:27;;;;;;;;;7.33;7.33;;;;;21.60;66.48;156513.91;4992495;28;45401;-73
2022/09/12 00:13:58;;;;;;;;;9.33;9.33;;;;;21.48;66.67;156482.09;4974891;28;45556;-73
2022/09/12 00:16:26;;;;;;;;;13.00;9.67;;;;;21.52;66.61;156491.34;4995704;27;45355;-74
2022/09/12 00:18:52;;;;;;;;;9.67;8.00;;;;;21.49;66.43;156484.72;4994038;27;47414;-73
2022/09/12 00:21:19;;;;;;;;;8.00;8.00;;;;;21.41;66.96;156464.84;4995271;28;45397;-73
2022/09/12 00:23:45;;;;;;;;;8.00;8.00;;;;;21.41;66.79;156463.53;4988659;28;45534;-73
2022/09/12 00:26:11;;;;;;;;;7.67;7.67;;;;;21.41;67.16;156463.53;4996597;28;45441;-73
2022/09/12 00:28:38;;;;;;;;;11.33;8.67;;;;;21.32;67.39;156440.91;4995714;28;46185;-73
2022/09/12 00:31:06;;;;;;;;;11.00;9.00;;;;;21.42;67.37;156466.16;4994325;28;45293;-73
2022/09/12 00:33:32;;;;;;;;;7.67;7.33;;;;;21.42;67.19;156467.50;4995599;28;45567;-73
2022/09/12 00:35:58;;;;;;;;;13.33;11.67;;;;;21.40;67.26;156462.19;4995888;28;45556;-73
2022/09/12 00:38:23;;;;;;;;;12.00;9.33;;;;;21.35;66.93;156447.53;4995372;28;46002;-73
2022/09/12 00:40:49;;;;;;;;;8.33;8.33;;;;;21.35;67.23;156447.53;4994312;27;45547;-73
2022/09/12 00:43:38;;;;;;;;;10.67;9.00;;;;;21.35;67.62;156448.84;4982546;28;45629;-74
2022/09/12 00:46:20;;;;;;;;;11.33;10.00;;;;;21.35;66.92;156447.53;4994742;28;45619;-73
2022/09/12 00:48:53;;;;;;;;;10.67;8.67;;;;;21.23;67.08;156418.34;4989752;28;46207;-73
2022/09/12 00:51:19;;;;;;;;;9.67;9.67;;;;;21.15;67.48;156397.16;4993997;28;45616;-73
2022/09/12 00:53:48;;;;;;;;;12.33;10.67;;;;;21.35;67.14;156447.53;4996209;28;45495;-73
2022/09/12 00:56:17;;;;;;;;;10.67;9.67;;;;;21.34;67.61;156446.22;4995365;28;45610;-73
2022/09/12 00:58:50;;;;;;;;;10.00;10.00;;;;;21.31;67.19;156438.28;4994962;28;46203;-73
2022/09/12 01:01:16;;;;;;;;;11.00;11.00;;;;;21.37;67.16;156452.84;4992002;28;46123;-73
2022/09/12 01:03:41;;;;;;;;;7.67;7.67;;;;;21.36;66.96;156451.53;4994074;28;45514;-72
2022/09/12 01:06:14;;;;;;;;;7.33;7.00;;;;;21.35;67.38;156447.53;4992777;28;45401;-73
2022/09/12 01:08:42;;;;;;;;;8.67;6.67;;;;;21.26;67.57;156426.34;4993893;28;46657;-73
2022/09/12 01:11:10;;;;;;;;;10.67;8.67;;;;;21.26;67.42;156425.03;4993842;27;45374;-74
2022/09/12 01:13:36;;;;;;;;;12.00;10.00;;;;;21.27;67.28;156428.97;4994130;28;45412;-72
2022/09/12 01:16:06;;;;;;;;;9.67;9.67;;;;;21.22;67.68;156414.41;4995070;28;45365;-73
2022/09/12 01:18:53;;;;;;;;;11.00;11.00;;;;;21.26;67.29;156426.34;4994561;28;46482;-73
2022/09/12 01:21:33;;;;;;;;;8.00;8.00;;;;;21.26;67.57;156425.03;4990499;28;45681;-73
2022/09/12 01:24:26;;;;;;;;;14.00;9.33;;;;;21.22;67.26;156414.41;4993988;28;45537;-74
2022/09/12 01:27:10;;;;;;;;;13.00;11.33;;;;;21.22;67.92;156414.41;4982409;28;45505;-73
2022/09/12 01:29:50;;;;;;;;;9.00;9.00;;;;;21.16;67.72;156399.78;4994303;28;46565;-73
2022/09/12 01:32:40;;;;;;;;;9.67;9.33;;;;;21.10;67.54;156382.59;4994542;28;45734;-73
2022/09/12 01:35:18;;;;;;;;;7.33;7.33;;;;;21.13;68.04;156391.84;4994075;28;45798;-72
2022/09/12 01:38:00;;;;;;;;;7.67;6.67;;;;;21.07;68.01;156377.28;4994454;28;45448;-74
2022/09/12 01:40:55;;;;;;;;;10.33;8.67;;;;;21.06;68.17;156373.28;4994687;27;46262;-73
2022/09/12 01:43:34;;;;;;;;;12.00;10.50;;;;;21.00;68.43;156358.72;4992058;28;45517;-73
2022/09/12 01:46:05;;;;;;;;;6.00;6.00;;;;;21.00;68.05;156357.38;4993815;28;45394;-73
2022/09/12 01:48:39;;;;;;;;;9.67;9.67;;;;;20.53;69.46;156236.69;4994211;28;45562;-73
2022/09/12 01:51:20;;;;;;;;;11.00;9.33;;;;;20.40;70.24;156203.56;4992546;28;46188;-73
2022/09/12 01:54:03;;;;;;;;;9.33;9.33;;;;;20.80;69.15;156307.00;4995139;28;45446;-73
2022/09/12 01:56:34;;;;;;;;;10.00;10.00;;;;;20.79;68.97;156303.00;4974726;28;45516;-73
2022/09/12 01:59:03;;;;;;;;;9.00;9.00;;;;;20.89;69.04;156329.56;4989353;28;45499;-73
2022/09/12 02:01:37;;;;;;;;;8.33;8.00;;;;;20.87;68.66;156324.25;4994277;28;46394;-73
2022/09/12 02:04:13;;;;;;;;;12.67;9.67;;;;;20.82;69.13;156311.00;4993361;28;45299;-73
2022/09/12 02:06:47;;;;;;;;;13.67;11.00;;;;;20.78;69.22;156300.38;4994349;27;45615;-73
2022/09/12 02:09:49;;;;;;;;;10.33;9.00;;;;;20.78;69.05;156301.69;4994081;28;45670;-73
2022/09/12 02:12:19;;;;;;;;;11.33;10.33;;;;;20.82;68.93;156312.31;4985931;28;46594;-73
2022/09/12 02:14:50;;;;;;;;;13.00;11.33;;;;;20.82;69.41;156311.00;4993027;28;45464;-73
2022/09/12 02:17:20;;;;;;;;;11.00;11.00;;;;;20.78;68.70;156301.69;4992639;28;45308;-73
2022/09/12 02:19:52;;;;;;;;;11.33;11.00;;;;;20.76;68.94;156296.38;4992184;27;45610;-73
2022/09/12 02:22:21;;;;;;;;;11.00;11.00;;;;;20.74;69.10;156289.75;4992903;28;46259;-73
2022/09/12 02:24:53;;;;;;;;;11.67;11.00;;;;;20.78;69.67;156301.69;4994849;28;45466;-73
2022/09/12 02:27:43;;;;;;;;;13.67;10.33;;;;;20.77;69.23;156297.75;4973926;28;45518;-73
2022/09/12 02:30:09;;;;;;;;;14.00;14.00;;;;;20.73;69.48;156288.44;4994235;28;45584;-73
2022/09/12 02:32:51;;;;;;;;;17.00;14.67;;;;;20.79;69.67;156304.38;4995068;28;46055;-73
2022/09/12 02:35:19;;;;;;;;;12.33;12.33;;;;;20.78;69.21;156300.38;4994129;28;45737;-73
2022/09/12 02:38:06;;;;;;;;;14.33;11.33;;;;;20.74;69.15;156291.06;4994173;28;45788;-73
2022/09/12 02:40:32;;;;;;;;;11.33;11.33;;;;;20.71;69.41;156283.13;4984901;28;45453;-73
2022/09/12 02:42:59;;;;;;;;;13.33;11.00;;;;;20.68;69.13;156273.88;4989618;28;45514;-73
2022/09/12 02:45:24;;;;;;;;;14.33;11.33;;;;;20.70;69.54;156280.50;4993231;28;45437;-73
2022/09/12 02:48:12;;;;;;;;;13.33;12.33;;;;;20.54;69.18;156238.03;4995062;28;45395;-73
2022/09/12 02:50:39;;;;;;;;;14.67;12.33;;;;;20.71;69.50;156281.81;4994935;28;45788;-73
2022/09/12 02:53:06;;;;;;;;;11.33;11.33;;;;;20.70;69.70;156279.16;4994651;28;46373;-73
2022/09/12 02:55:33;;;;;;;;;14.00;12.00;;;;;20.69;69.82;156276.50;4973874;28;45322;-73
2022/09/12 02:58:05;;;;;;;;;15.00;13.33;;;;;20.62;69.44;156260.59;4974432;28;45518;-73
2022/09/12 03:00:45;;;;;;;;;13.00;11.67;;;;;20.61;69.59;156256.66;4988704;28;45469;-73
2022/09/12 03:03:28;;;;;;;;;13.67;12.67;;;;;20.60;69.73;156253.97;4973976;28;46364;-73
2022/09/12 03:05:58;;;;;;;;;12.00;11.00;;;;;20.58;69.85;156250.03;4972201;28;45444;-73
2022/09/12 03:09:01;;;;;;;;;11.33;10.67;;;;;20.55;70.07;156242.00;4994934;28;45359;-73
2022/09/12 03:11:29;;;;;;;;;13.67;13.67;;;;;20.55;69.97;156242.00;4995220;28;45336;-73
2022/09/12 03:14:34;;;;;;;;;13.33;11.33;;;;;20.53;70.28;156236.69;4994270;28;46453;-73
2022/09/12 03:17:12;;;;;;;;;10.67;10.67;;;;;20.52;69.98;156234.06;4978548;28;45464;-73
2022/09/12 03:20:00;;;;;;;;;14.33;12.67;;;;;20.55;69.66;156240.69;4990263;28;45353;-73
2022/09/12 03:22:52;;;;;;;;;16.33;12.67;;;;;20.53;70.21;156236.69;5018944;28;45756;-73
2022/09/12 03:25:24;;;;;;;;;10.67;10.67;;;;;20.54;69.69;156238.03;4993989;28;47262;-72
2022/09/12 03:28:10;;;;;;;;;11.67;11.33;;;;;20.51;69.83;156230.06;4976707;28;45649;-73
2022/09/12 03:30:41;;;;;;;;;11.67;10.67;;;;;20.51;69.76;156231.41;4983690;28;45491;-73
2022/09/12 03:33:10;;;;;;;;;11.33;10.00;;;;;20.40;69.90;156202.25;4976982;28;45540;-73
2022/09/12 03:35:35;;;;;;;;;11.33;11.33;;;;;20.47;69.87;156220.81;4994150;28;45420;-72
2022/09/12 03:38:01;;;;;;;;;10.00;10.00;;;;;20.43;69.87;156210.19;4994101;28;45343;-73
2022/09/12 03:40:26;;;;;;;;;9.33;9.33;;;;;20.39;70.14;156199.56;4994524;28;45542;-73
2022/09/12 03:42:52;;;;;;;;;13.67;11.33;;;;;20.42;70.21;156207.56;4976895;28;45520;-73
2022/09/12 03:45:17;;;;;;;;;14.67;10.67;;;;;20.41;69.75;156204.88;4994093;28;46306;-73
2022/09/12 03:47:43;;;;;;;;;14.67;14.67;;;;;20.41;70.30;156206.19;4994149;28;45399;-73
2022/09/12 03:50:09;;;;;;;;;12.67;11.67;;;;;20.38;70.52;156198.25;4992756;28;45346;-73
2022/09/12 03:52:34;;;;;;;;;12.67;12.67;;;;;20.27;70.34;156167.78;4977040;28;45447;-73
2022/09/12 03:54:59;;;;;;;;;13.67;12.00;;;;;20.36;70.11;156192.94;4993977;28;46217;-73
2022/09/12 03:57:25;;;;;;;;;11.67;10.00;;;;;20.38;70.61;156198.25;4976510;28;45455;-73
2022/09/12 03:59:50;;;;;;;;;10.33;10.33;;;;;20.39;70.19;156199.56;4992603;28;45394;-73
2022/09/12 04:02:16;;;;;;;;;12.33;10.00;;;;;20.37;70.17;156195.63;4994439;28;45332;-73
2022/09/12 04:04:42;;;;;;;;;9.67;8.33;;;;;20.36;70.61;156192.94;4993592;28;45484;-73
2022/09/12 04:07:10;;;;;;;;;12.33;11.33;;;;;20.38;70.55;156196.94;4993788;28;45487;-73
2022/09/12 04:09:35;;;;;;;;;11.67;11.67;;;;;20.31;70.08;156179.72;4993947;28;45362;-73
2022/09/12 04:12:01;;;;;;;;;11.00;9.67;;;;;20.31;70.21;156178.41;4994258;28;45382;-73
2022/09/12 04:14:26;;;;;;;;;11.33;10.33;;;;;20.34;70.69;156187.66;4993711;28;45387;-73
2022/09/12 04:16:51;;;;;;;;;11.00;11.00;;;;;20.35;70.32;156190.31;4993612;28;45290;-74
2022/09/12 04:19:17;;;;;;;;;12.67;11.33;;;;;20.34;70.16;156186.34;4993773;28;45418;-74
2022/09/12 04:21:42;;;;;;;;;12.33;10.00;;;;;20.30;70.66;156177.09;4994251;28;45276;-73
2022/09/12 04:24:07;;;;;;;;;9.33;9.33;;;;;20.26;70.75;156165.16;4993399;28;46121;-73
2022/09/12 04:26:33;;;;;;;;;12.00;12.00;;;;;20.24;71.01;156161.16;4975945;28;46060;-73
2022/09/12 04:28:59;;;;;;;;;12.00;9.67;;;;;20.22;70.76;156157.16;4993678;28;45799;-73
2022/09/12 04:31:25;;;;;;;;;12.00;11.00;;;;;20.22;70.86;156155.84;4959977;28;45483;-73
2022/09/12 04:33:59;;;;;;;;;12.33;11.33;;;;;20.14;70.43;156134.69;4993341;28;46941;-73
2022/09/12 04:36:26;;;;;;;;;12.00;8.67;;;;;20.20;70.55;156150.53;4993465;28;45305;-73
2022/09/12 04:38:52;;;;;;;;;13.33;11.33;;;;;20.18;70.50;156145.25;4993564;28;45496;-73
2022/09/12 04:41:26;;;;;;;;;10.33;9.33;;;;;20.19;70.30;156147.91;4993478;28;45391;-73
2022/09/12 04:43:57;;;;;;;;;11.67;11.67;;;;;20.15;70.75;156138.63;4993122;28;47334;-73
2022/09/12 04:46:24;;;;;;;;;12.33;11.33;;;;;20.12;70.57;156130.69;4992821;28;45266;-73
2022/09/12 04:48:50;;;;;;;;;12.00;11.33;;;;;20.12;70.96;156129.38;4975591;28;45695;-73
2022/09/12 04:51:24;;;;;;;;;12.00;11.33;;;;;20.03;70.83;156108.16;4993414;28;45376;-74
2022/09/12 04:53:51;;;;;;;;;14.00;11.67;;;;;20.13;71.15;156132.00;4992811;28;46489;-72
2022/09/12 04:56:19;;;;;;;;;12.33;11.33;;;;;20.13;71.14;156132.00;4993074;28;45499;-72
2022/09/12 04:58:45;;;;;;;;;11.33;11.33;;;;;20.14;70.73;156134.69;4993302;28;45564;-72
2022/09/12 05:01:13;;;;;;;;;9.67;9.00;;;;;20.12;71.06;156130.69;4994260;28;45489;-72
2022/09/12 05:03:42;;;;;;;;;14.00;11.67;;;;;20.09;70.60;156122.75;4992082;28;45549;-72
2022/09/12 05:06:10;;;;;;;;;13.33;10.67;;;;;20.03;70.70;156106.84;4996040;28;45378;-73
2022/09/12 05:08:36;;;;;;;;;11.67;11.00;;;;;20.13;71.01;156132.00;4996529;28;45680;-72
2022/09/12 05:11:04;;;;;;;;;16.33;12.00;;;;;20.12;70.59;156130.69;4996473;28;45344;-72
2022/09/12 05:13:30;;;;;;;;;13.67;11.67;;;;;20.04;70.53;156109.47;4996207;28;47449;-72
2022/09/12 05:16:01;;;;;;;;;17.67;12.33;;;;;20.09;70.60;156122.75;4995495;28;45410;-72
2022/09/12 05:18:27;;;;;;;;;11.00;10.00;;;;;20.08;71.21;156118.75;4995959;28;45248;-72
2022/09/12 05:20:53;;;;;;;;;11.33;10.67;;;;;20.08;71.10;156120.06;4996542;28;45281;-73
2022/09/12 05:23:20;;;;;;;;;11.00;11.00;;;;;20.08;71.31;156120.06;4995601;28;45385;-73
2022/09/12 05:25:49;;;;;;;;;12.33;11.67;;;;;20.01;70.70;156102.84;4996047;28;45304;-73
2022/09/12 05:28:15;;;;;;;;;16.00;12.33;;;;;20.08;70.63;156118.75;4995793;28;45519;-73
2022/09/12 05:30:40;;;;;;;;;13.67;10.00;;;;;20.07;71.08;156117.44;4978563;28;45441;-72
2022/09/12 05:33:05;;;;;;;;;10.67;10.67;;;;;20.06;71.19;156113.44;4995525;28;46242;-73
2022/09/12 05:35:32;;;;;;;;;12.33;10.33;;;;;19.98;71.28;156094.91;4978362;28;45406;-73
2022/09/12 05:37:57;;;;;;;;;13.33;11.67;;;;;19.98;71.28;156093.59;4974953;28;45432;-72
2022/09/12 05:40:22;;;;;;;;;9.00;8.33;;;;;20.00;71.35;156098.91;4961562;28;45513;-75
2022/09/12 05:42:48;;;;;;;;;10.33;9.00;;;;;19.95;71.09;156086.97;4977067;28;46111;-76
2022/09/12 05:45:13;;;;;;;;;14.00;11.00;;;;;19.99;71.48;156096.22;4994584;28;45737;-76
2022/09/12 05:47:39;;;;;;;;;11.00;8.67;;;;;20.01;71.46;156102.84;4977163;28;45750;-76
2022/09/12 05:50:09;;;;;;;;;10.33;10.00;;;;;20.01;71.55;156101.53;4995329;28;45303;-74
2022/09/12 05:52:35;;;;;;;;;10.00;10.00;;;;;20.00;71.08;156098.91;4987739;28;45929;-73
2022/09/12 05:55:00;;;;;;;;;9.00;9.00;;;;;19.96;71.10;156088.28;4987631;28;45523;-76
2022/09/12 05:57:26;;;;;;;;;11.67;11.67;;;;;20.03;71.05;156106.84;4994744;28;46394;-90
2022/09/12 05:59:51;;;;;;;;;11.33;9.67;;;;;20.08;71.36;156120.06;4987166;28;45807;-72
2022/09/12 06:02:17;;;;;;;;;12.00;10.67;;;;;20.07;71.59;156117.44;4994635;28;46144;-73
2022/09/12 06:04:42;;;;;;;;;11.00;10.33;;;;;20.15;71.36;156138.63;4977591;28;45361;-74
2022/09/12 06:07:08;;;;;;;;;14.33;10.67;;;;;20.10;71.38;156124.06;4995000;28;45290;-72
2022/09/12 06:09:33;;;;;;;;;10.67;8.33;;;;;20.18;70.73;156146.59;4989071;28;45562;-84
2022/09/12 06:11:59;;;;;;;;;18.00;15.00;;;;;20.21;71.32;156154.53;4973985;28;46305;-81
2022/09/12 06:14:24;;;;;;;;;11.33;10.33;;;;;20.22;70.66;156157.16;4981593;28;45429;-73
2022/09/12 06:16:50;;;;;;;;;12.67;10.67;;;;;20.24;71.10;156162.47;4984584;28;45816;-72
2022/09/12 06:19:18;;;;;;;;;12.67;11.67;;;;;20.29;70.92;156173.09;4985122;28;45474;-79
2022/09/12 06:21:46;;;;;;;;;9.33;9.33;;;;;20.17;70.86;156142.63;4975992;27;48219;-77
2022/09/12 06:24:12;;;;;;;;;13.00;13.00;;;;;20.31;70.87;156179.72;4985916;27;45385;-78
2022/09/12 06:26:37;;;;;;;;;11.33;9.33;;;;;20.40;70.97;156202.25;4991828;28;45509;-76
2022/09/12 06:29:03;;;;;;;;;11.67;10.33;;;;;20.43;70.38;156210.19;5035612;27;45499;-75
2022/09/12 06:31:35;;;;;;;;;9.33;9.33;;;;;20.42;70.49;156207.56;4986079;27;46955;-74
2022/09/12 06:34:06;;;;;;;;;11.67;10.33;;;;;20.40;70.88;156202.25;4996218;27;45527;-76
2022/09/12 06:36:35;;;;;;;;;11.33;10.33;;;;;20.49;70.15;156224.81;5008097;27;45524;-76
2022/09/12 06:39:21;;;;;;;;;9.33;9.33;;;;;20.51;70.17;156231.41;4998383;28;45506;-74
2022/09/12 06:41:48;;;;;;;;;10.33;7.00;;;;;20.37;70.10;156195.63;4973496;28;48104;-74
2022/09/12 06:44:19;;;;;;;;;12.33;11.33;;;;;20.59;70.74;156251.34;4987440;28;45482;-76
2022/09/12 06:46:44;;;;;;;;;13.33;13.33;;;;;20.61;70.06;156256.66;4989143;28;45405;-77
2022/09/12 06:49:10;;;;;;;;;14.00;11.33;;;;;20.60;70.97;156255.34;4984115;28;45389;-76
2022/09/12 06:51:36;;;;;;;;;11.00;10.33;;;;;20.61;70.67;156257.97;4994370;28;47170;-77
2022/09/12 06:54:02;;;;;;;;;12.33;10.33;;;;;20.68;70.28;156275.19;4972316;28;45501;-77
2022/09/12 06:56:28;;;;;;;;;12.33;11.33;;;;;20.70;69.81;156280.50;4986631;28;45474;-77
2022/09/12 06:58:58;;;;;;;;;10.00;9.67;;;;;20.74;70.63;156289.75;4976944;28;45707;-77
2022/09/12 07:01:29;;;;;;;;;11.67;10.33;;;;;20.80;70.48;156305.69;4995128;28;45418;-76
2022/09/12 07:04:01;;;;;;;;;12.67;10.33;;;;;20.82;71.50;156312.31;4993499;28;45369;-76
2022/09/12 07:06:30;;;;;;;;;13.33;10.33;;;;;20.87;70.50;156325.56;4995116;28;45522;-77
2022/09/12 07:09:00;;;;;;;;;12.33;12.00;;;;;20.92;69.85;156336.19;4995037;28;45437;-77
2022/09/12 07:11:32;;;;;;;;;8.00;8.00;;;;;20.99;71.02;156354.72;4994677;28;45357;-78
2022/09/12 07:13:59;;;;;;;;;16.33;11.33;;;;;21.04;70.05;156369.28;4994666;28;45424;-75
2022/09/12 07:16:25;;;;;;;;;14.00;12.33;;;;;21.09;69.46;156381.22;4991068;28;45533;-75
2022/09/12 07:18:52;;;;;;;;;14.67;13.33;;;;;21.15;69.92;156397.16;4987610;28;45464;-74
2022/09/12 07:21:18;;;;;;;;;11.00;11.00;;;;;21.19;70.59;156407.78;4994476;28;45389;-74
2022/09/12 07:23:44;;;;;;;;;13.33;11.33;;;;;21.23;70.07;156418.34;4994521;28;45351;-79
2022/09/12 07:26:11;;;;;;;;;12.00;9.00;;;;;21.35;70.60;156448.84;4991882;28;45483;-75
2022/09/12 07:28:37;;;;;;;;;14.33;11.67;;;;;21.38;69.29;156455.53;4992370;28;45460;-74
2022/09/12 07:31:09;;;;;;;;;11.33;10.33;;;;;21.49;69.54;156484.72;4998944;28;46579;-75
2022/09/12 07:33:36;;;;;;;;;11.67;11.33;;;;;21.51;69.06;156490.03;4994177;28;45283;-76
2022/09/12 07:36:10;;;;;;;;;11.67;10.67;;;;;21.49;69.32;156484.72;4994532;28;45369;-81
2022/09/12 07:38:37;;;;;;;;;11.67;10.00;;;;;21.66;69.69;156529.84;4993070;28;45420;-75
2022/09/12 07:41:13;;;;;;;;;13.33;11.67;;;;;21.63;68.61;156521.91;4987758;28;45501;-75
2022/09/12 07:43:39;;;;;;;;;11.33;9.33;;;;;21.76;68.35;156553.72;4989244;28;45405;-75
2022/09/12 07:46:04;;;;;;;;;10.00;10.00;;;;;21.80;68.16;156564.34;4993833;28;45403;-75
2022/09/12 07:48:29;;;;;;;;;12.67;11.67;;;;;21.80;67.69;156564.34;4994211;28;45451;-74
2022/09/12 07:51:00;;;;;;;;;16.00;14.33;;;;;21.76;67.98;156555.03;4993770;28;46097;-75
2022/09/12 07:53:29;;;;;;;;;12.00;12.00;;;;;21.81;67.30;156566.97;4993655;28;45319;-75
2022/09/12 07:55:55;;;;;;;;;12.00;11.67;;;;;21.93;68.21;156600.13;4993790;28;45436;-75
2022/09/12 07:58:24;;;;;;;;;13.67;13.67;;;;;22.02;68.15;156621.38;4993776;28;45523;-75
2022/09/12 08:00:50;;;;;;;;;12.00;11.00;;;;;22.01;68.24;156620.06;4994022;28;46368;-75
2022/09/12 08:03:15;;;;;;;;;19.00;13.33;;;;;22.20;67.24;156669.13;4993957;28;45369;-75
2022/09/12 08:05:41;;;;;;;;;14.67;11.67;;;;;22.20;67.12;156669.13;4976676;28;45357;-75
2022/09/12 08:08:06;;;;;;;;;17.00;12.67;;;;;22.33;67.47;156703.66;4976672;28;45507;-74
2022/09/12 08:10:32;;;;;;;;;10.67;10.67;;;;;22.34;67.72;156706.34;4984204;28;46016;-75
2022/09/12 08:12:57;;;;;;;;;12.33;12.33;;;;;22.48;66.72;156742.16;4984126;28;45815;-75
2022/09/12 08:15:23;;;;;;;;;17.33;14.00;;;;;22.55;66.25;156760.75;4985541;28;45408;-75
2022/09/12 08:17:49;;;;;;;;;13.33;12.33;;;;;22.67;66.71;156789.94;4990190;28;45429;-75
2022/09/12 08:20:14;;;;;;;;;15.33;12.67;;;;;22.75;66.13;156811.16;4991173;28;46119;-75
2022/09/12 08:22:39;;;;;;;;;15.00;12.33;;;;;22.86;65.80;156840.38;4964983;28;45516;-75
2022/09/12 08:25:07;;;;;;;;;13.67;11.67;;;;;22.94;64.51;156860.28;4991972;28;45472;-75
2022/09/12 08:27:32;;;;;;;;;15.33;11.67;;;;;23.10;65.01;156902.81;4971160;28;45755;-75
2022/09/12 08:29:58;;;;;;;;;16.00;13.33;;;;;23.21;64.97;156930.72;4985839;28;45395;-75
2022/09/12 08:32:24;;;;;;;;;11.33;11.33;;;;;23.32;64.38;156958.56;4991775;28;45688;-75
2022/09/12 08:34:50;;;;;;;;;14.33;12.00;;;;;23.32;63.88;156959.94;4973331;28;45445;-75
2022/09/12 08:37:15;;;;;;;;;18.00;14.67;;;;;23.29;62.71;156950.63;4991170;28;45425;-75
2022/09/12 08:39:41;;;;;;;;;11.00;11.00;;;;;23.41;63.72;156981.16;4993283;28;48026;-75
2022/09/12 08:42:11;;;;;;;;;12.00;11.33;;;;;23.51;63.48;157009.06;4996711;28;45385;-76
2022/09/12 08:44:42;;;;;;;;;9.33;9.33;;;;;23.53;62.78;157013.00;4996652;28;45289;-75
2022/09/12 08:47:24;;;;;;;;;13.00;12.33;;;;;23.57;62.96;157024.97;4991918;28;45494;-75
2022/09/12 08:50:14;;;;;;;;;12.00;10.67;;;;;23.62;62.46;157036.91;4993980;28;45424;-76
2022/09/12 08:52:53;;;;;;;;;11.67;9.33;;;;;23.72;62.35;157062.19;4993216;28;45454;-75
2022/09/12 08:55:24;;;;;;;;;16.33;15.00;;;;;23.79;62.05;157080.84;4992635;28;45455;-77
2022/09/12 08:57:50;;;;;;;;;10.33;10.33;;;;;23.86;62.22;157098.06;4996113;28;45555;-76
2022/09/12 09:00:18;;;;;;;;;14.33;12.33;;;;;23.97;62.48;157127.31;4995884;28;46430;-76
2022/09/12 09:03:19;;;;;;;;;12.33;12.33;;;;;24.07;62.01;157152.53;4996282;28;45280;-76
2022/09/12 09:06:06;;;;;;;;;15.33;13.67;;;;;24.19;61.51;157184.47;4986111;28;45396;-76
2022/09/12 09:09:00;;;;;;;;;11.00;11.00;;;;;24.37;60.89;157230.94;4996513;28;45473;-76
2022/09/12 09:11:48;;;;;;;;;12.67;10.33;;;;;24.47;60.69;157256.22;4996073;28;46150;-76
2022/09/12 09:17:19;;;;;;;;;13.00;9.00;;;;;24.57;60.93;157282.81;4996482;28;45495;-76
2022/09/12 09:19:51;;;;;;;;;11.00;7.67;;;;;24.68;60.26;157310.69;4996538;28;45302;-76
2022/09/12 09:22:41;;;;;;;;;10.33;10.33;;;;;24.76;59.84;157333.31;4995834;28;46211;-76
2022/09/12 09:25:19;;;;;;;;;13.67;10.00;;;;;24.88;59.42;157363.88;4996160;28;45221;-76
2022/09/12 09:28:01;;;;;;;;;11.00;11.00;;;;;24.95;59.13;157382.47;4996280;28;45379;-76
2022/09/12 09:30:27;;;;;;;;;11.00;10.00;;;;;25.06;58.59;157410.41;4996171;28;45290;-76
2022/09/12 09:33:02;;;;;;;;;11.33;10.33;;;;;25.35;58.44;157484.91;4987357;28;45455;-77
2022/09/12 09:35:45;;;;;;;;;9.67;9.00;;;;;25.58;57.96;157544.75;4987708;28;45857;-77
2022/09/12 09:38:26;;;;;;;;;10.33;9.33;;;;;25.97;56.97;157647.22;4989000;28;45390;-76
2022/09/12 09:41:12;;;;;;;;;10.00;8.00;;;;;26.49;55.44;157781.56;4978103;28;45364;-76
2022/09/12 09:43:37;;;;;;;;;7.33;7.00;;;;;27.24;54.62;157975.97;4994807;28;46584;-77
2022/09/12 09:46:03;;;;;;;;;9.33;9.33;;;;;29.02;51.62;155231.66;4969338;28;46036;-76
2022/09/12 09:48:33;;;;;;;;;10.67;9.00;;;;;30.80;47.91;-20020.88;4994011;28;45443;-77
2022/09/12 09:51:01;;;;;;;;;8.67;7.00;;;;;32.02;45.10;-20052.25;4995262;28;45447;-77
2022/09/12 09:53:31;;;;;;;;;6.00;6.00;;;;;33.10;42.95;-20079.88;4990889;28;47093;-77
2022/09/12 09:56:02;;;;;;;;;5.25;5.25;;;;;33.92;42.22;-20100.69;4995601;28;45371;-78
2022/09/12 09:58:34;;;;;;;;;6.25;5.00;;;;;34.70;40.26;-20120.69;5054388;28;45462;-78
2022/09/12 10:01:04;;;;;;;;;4.00;4.00;;;;;35.56;38.00;-20142.59;4996259;28;45336;-78
2022/09/12 10:03:33;;;;;;;;;5.00;5.00;;;;;36.37;35.98;-20163.19;5029850;28;45450;-78
2022/09/12 10:06:07;;;;;;;;;5.25;4.00;;;;;37.06;36.05;-20180.75;5044369;28;45501;-78
2022/09/12 10:08:35;;;;;;;;;5.50;4.75;;;;;37.51;34.54;-20192.06;4982834;28;45358;-78
2022/09/12 10:11:19;;;;;;;;;5.00;5.00;;;;;38.14;34.07;-20208.03;4996248;28;45349;-78
2022/09/12 10:14:00;;;;;;;;;3.00;3.00;;;;;38.58;32.30;-20219.31;4995384;28;46129;-78
2022/09/12 10:16:34;;;;;;;;;3.75;3.75;;;;;38.84;31.74;-20225.94;4995622;28;45334;-78
2022/09/12 10:19:01;;;;;;;;;3.25;3.25;;;;;39.27;30.92;-20236.69;4995434;28;45504;-78
2022/09/12 10:21:50;;;;;;;;;1.75;1.75;;;;;39.63;30.53;-20245.78;4995490;28;45426;-78
2022/09/12 10:24:23;;;;;;;;;4.00;4.00;;;;;39.94;29.67;-20253.66;4995409;28;46185;-78
2022/09/12 10:26:53;;;;;;;;;3.00;3.00;;;;;40.26;28.86;-20261.81;4995259;28;45489;-79
2022/09/12 10:29:27;;;;;;;;;3.75;3.75;;;;;40.72;28.66;-20273.47;4995915;28;45407;-78
2022/09/12 10:31:56;;;;;;;;;2.00;2.00;;;;;41.23;27.59;-20286.25;4995673;28;45365;-78
2022/09/12 10:34:43;;;;;;;;;3.00;3.00;;;;;41.67;27.05;-20297.22;4994839;28;45369;-75
2022/09/12 10:37:25;;;;;;;;;4.67;3.00;;;;;41.97;26.54;-20304.97;4994921;28;45468;-74
2022/09/12 10:39:55;;;;;;;;;1.00;1.00;;;;;42.29;25.77;-20312.94;4995521;28;45223;-78
2022/09/12 10:42:49;;;;;;;;;2.00;2.00;;;;;42.65;25.58;-20321.84;4995623;28;45544;-78
2022/09/12 10:45:20;;;;;;;;;2.67;1.67;;;;;42.93;24.38;-20326.88;4994810;28;45489;-79
2022/09/12 10:47:47;;;;;;;;;0.33;0.33;;;;;42.68;23.80;-19276.59;4995075;28;45369;-78
2022/09/12 10:50:27;;;;;;;;;1.00;1.00;;;;;42.77;24.47;-18930.63;4995306;28;45543;-78
2022/09/12 10:52:54;;;;;;;;;1.00;1.00;;;;;42.97;23.61;-17890.16;4965922;28;45535;-79
2022/09/12 10:55:31;;;;;;;;;0.25;0.25;;;;;43.15;23.25;-16848.56;4995228;28;47362;-78
2022/09/12 10:58:21;;;;;;;;;0.67;0.67;;;;;43.29;22.97;-15456.44;4982748;28;45342;-79
2022/09/12 11:00:54;;;;;;;;;1.67;1.67;;;;;43.31;22.19;-14061.56;4995073;28;45262;-78
2022/09/12 11:03:48;;;;;;;;;0.67;0.67;;;;;43.20;22.20;-11966.25;4977694;28;45453;-79
2022/09/12 11:06:21;;;;;;;;;1.33;1.33;;;;;43.11;22.72;-10918.09;4994743;28;46405;-78
2022/09/12 11:09:17;;;;;;;;;1.67;1.67;;;;;43.11;22.41;-10219.84;4995037;28;45297;-78
2022/09/12 11:11:56;;;;;;;;;0.00;0.00;;;;;42.57;22.33;-7422.94;4988588;28;45525;-79
2022/09/12 11:14:28;;;;;;;;;0.00;0.00;;;;;41.51;23.12;-5674.31;4995447;28;45468;-78
2022/09/12 11:17:08;;;;;;;;;2.00;1.33;;;;;40.78;23.94;-4975.75;4994501;28;45584;-78
2022/09/12 11:20:01;;;;;;;;;1.75;0.00;;;;;40.25;24.15;-3930.56;4994420;28;45341;-78
2022/09/12 11:22:42;;;;;;;;;0.00;0.00;;;;;39.67;25.00;-3930.56;4984426;28;45338;-78
2022/09/12 11:25:07;;;;;;;;;3.00;1.00;;;;;38.79;25.11;-1150.56;4994880;28;45523;-78
2022/09/12 11:27:52;;;;;;;;;1.00;1.00;;;;;38.41;25.73;-2541.59;4977091;28;48184;-78
2022/09/12 11:30:18;;;;;;;;;2.50;1.50;;;;;38.39;26.17;-3583.34;4994619;28;45652;-78
2022/09/12 11:33:13;;;;;;;;;1.25;1.25;;;;;38.46;26.18;-3236.06;4994750;28;45410;-78
2022/09/12 11:35:50;;;;;;;;;2.50;1.00;;;;;38.67;26.54;-4972.34;4995028;28;45470;-78
2022/09/12 11:38:29;;;;;;;;;2.00;1.00;;;;;38.58;25.22;-456.34;4994383;28;46649;-78